sensor_id;sensor_type;location;lat;lon;timestamp;pressure;altitude;pressure_sealevel;temperature;humidity
32735;BME280;19112;51.076;3.706;2023-08-24T00:00:48;101167.66;;;20.24;64.05
32735;BME280;19112;51.076;3.706;2023-08-24T00:03:39;101612.13;;;23.17;63.95
32735;BME280;19112;51.076;3.706;2023-08-24T00:06:16;101102.81;;;20.14;63.96
32735;BME280;19112;51.076;3.706;2023-08-24T00:09:00;100955.47;;;19.36;63.88
32735;BME280;19112;51.076;3.706;2023-08-24T00:11:43;101172.06;;;20.54;63.60
32735;BME280;19112;51.076;3.706;2023-08-24T00:14:29;101257.28;;;21.17;63.65
32735;BME280;19112;51.076;3.706;2023-08-24T00:17:10;101605.81;;;23.21;64.00
32735;BME280;19112;51.076;3.706;2023-08-24T00:19:42;101066.38;;;20.04;63.81
32735;BME280;19112;51.076;3.706;2023-08-24T00:22:20;100883.63;;;19.01;63.83
32735;BME280;19112;51.076;3.706;2023-08-24T00:25:00;101639.94;;;22.96;64.01
32735;BME280;19112;51.076;3.706;2023-08-24T00:27:45;101605.03;;;23.09;64.02
32735;BME280;19112;51.076;3.706;2023-08-24T00:30:32;101260.84;;;21.14;63.79
32735;BME280;19112;51.076;3.706;2023-08-24T00:33:15;101629.97;;;23.15;64.05
32735;BME280;19112;51.076;3.706;2023-08-24T00:35:58;101132.09;;;20.22;63.69
32735;BME280;19112;51.076;3.706;2023-08-24T00:38:31;101272.47;;;21.00;63.60
32735;BME280;19112;51.076;3.706;2023-08-24T00:41:13;101206.72;;;20.73;63.53
32735;BME280;19112;51.076;3.706;2023-08-24T00:44:03;101120.50;;;20.34;63.22
32735;BME280;19112;51.076;3.706;2023-08-24T00:46:58;101181.78;;;20.84;63.14
32735;BME280;19112;51.076;3.706;2023-08-24T00:49:38;101236.75;;;21.25;62.86
32735;BME280;19112;51.076;3.706;2023-08-24T00:52:50;101262.50;;;21.51;62.44
32735;BME280;19112;51.076;3.706;2023-08-24T00:55:25;101058.28;;;20.33;62.49
32735;BME280;19112;51.076;3.706;2023-08-24T00:58:31;101251.91;;;21.28;61.94
32735;BME280;19112;51.076;3.706;2023-08-24T01:01:18;101611.88;;;23.51;62.33
32735;BME280;19112;51.076;3.706;2023-08-24T01:04:27;101281.22;;;21.51;62.13
32735;BME280;19112;51.076;3.706;2023-08-24T01:07:19;101647.56;;;23.58;62.04
32735;BME280;19112;51.076;3.706;2023-08-24T01:10:03;101586.88;;;23.46;62.08
32735;BME280;19112;51.076;3.706;2023-08-24T01:13:02;101587.72;;;23.52;62.24
32735;BME280;19112;51.076;3.706;2023-08-24T01:16:18;101229.53;;;21.55;62.11
32735;BME280;19112;51.076;3.706;2023-08-24T01:18:49;101247.41;;;21.47;62.39
32735;BME280;19112;51.076;3.706;2023-08-24T01:21:40;101570.81;;;23.43;62.47
32735;BME280;19112;51.076;3.706;2023-08-24T01:25:11;101042.34;;;20.24;62.40
32735;BME280;19112;51.076;3.706;2023-08-24T01:27:57;101226.03;;;21.40;62.90
32735;BME280;19112;51.076;3.706;2023-08-24T01:30:54;101042.25;;;20.42;63.97
32735;BME280;19112;51.076;3.706;2023-08-24T01:33:46;101025.41;;;20.33;65.19
32735;BME280;19112;51.076;3.706;2023-08-24T01:36:27;101520.19;;;23.08;66.79
32735;BME280;19112;51.076;3.706;2023-08-24T01:39:31;101054.81;;;20.10;67.43
32735;BME280;19112;51.076;3.706;2023-08-24T01:42:26;101508.81;;;22.69;68.72
32735;BME280;19112;51.076;3.706;2023-08-24T01:45:05;101109.84;;;20.37;69.77
32735;BME280;19112;51.076;3.706;2023-08-24T01:47:39;100937.72;;;19.30;69.94
32735;BME280;19112;51.076;3.706;2023-08-24T01:50:14;100936.84;;;19.21;69.92
32735;BME280;19112;51.076;3.706;2023-08-24T01:52:51;101338.22;;;21.50;70.14
32735;BME280;19112;51.076;3.706;2023-08-24T02:06:27;101450.91;;;22.53;70.35
32735;BME280;19112;51.076;3.706;2023-08-24T02:09:32;101035.25;;;20.12;70.28
32735;BME280;19112;51.076;3.706;2023-08-24T02:12:33;101157.75;;;20.80;70.34
32735;BME280;19112;51.076;3.706;2023-08-24T02:15:23;101121.41;;;20.47;70.93
32735;BME280;19112;51.076;3.706;2023-08-24T02:21:54;101141.69;;;20.90;70.41
32735;BME280;19112;51.076;3.706;2023-08-24T02:24:44;101264.28;;;21.55;70.65
32735;BME280;19112;51.076;3.706;2023-08-24T02:37:31;101390.38;;;22.35;70.47
32735;BME280;19112;51.076;3.706;2023-08-24T03:17:30;101080.50;;;20.43;69.31
32735;BME280;19112;51.076;3.706;2023-08-24T03:23:37;101056.56;;;20.25;69.37
32735;BME280;19112;51.076;3.706;2023-08-24T03:26:56;100942.13;;;19.56;69.20
32735;BME280;19112;51.076;3.706;2023-08-24T03:29:56;101098.28;;;20.41;69.05
32735;BME280;19112;51.076;3.706;2023-08-24T04:18:04;100951.94;;;19.14;69.76
32735;BME280;19112;51.076;3.706;2023-08-24T05:34:23;100980.13;;;20.21;69.98
32735;BME280;19112;51.076;3.706;2023-08-24T05:37:38;101043.16;;;20.51;70.25
32735;BME280;19112;51.076;3.706;2023-08-24T05:40:25;101299.56;;;22.09;70.64
32735;BME280;19112;51.076;3.706;2023-08-24T05:43:24;100879.97;;;19.60;70.05
32735;BME280;19112;51.076;3.706;2023-08-24T05:46:53;101169.03;;;21.44;69.93
32735;BME280;19112;51.076;3.706;2023-08-24T06:00:57;101064.22;;;20.98;69.26
32735;BME280;19112;51.076;3.706;2023-08-24T06:03:34;101284.28;;;22.32;68.87
32735;BME280;19112;51.076;3.706;2023-08-24T06:06:05;101088.09;;;21.24;68.90
32735;BME280;19112;51.076;3.706;2023-08-24T06:08:37;100908.13;;;20.25;68.48
32735;BME280;19112;51.076;3.706;2023-08-24T06:11:44;101307.03;;;22.82;68.14
32735;BME280;19112;51.076;3.706;2023-08-24T06:14:56;101025.78;;;21.30;67.75
32735;BME280;19112;51.076;3.706;2023-08-24T11:12:28;101031.16;;;29.57;58.39
32735;BME280;19112;51.076;3.706;2023-08-24T11:15:32;100874.06;;;28.53;56.82
32735;BME280;19112;51.076;3.706;2023-08-24T11:18:29;100772.34;;;27.86;56.42
32735;BME280;19112;51.076;3.706;2023-08-24T11:21:00;100947.34;;;28.89;55.94
32735;BME280;19112;51.076;3.706;2023-08-24T11:23:28;100823.34;;;28.16;55.14
32735;BME280;19112;51.076;3.706;2023-08-24T11:25:56;100939.13;;;28.92;55.09
32735;BME280;19112;51.076;3.706;2023-08-24T11:28:25;101002.88;;;29.42;54.36
32735;BME280;19112;51.076;3.706;2023-08-24T11:30:52;101055.28;;;29.61;54.61
32735;BME280;19112;51.076;3.706;2023-08-24T11:33:28;101008.38;;;29.40;54.81
32735;BME280;19112;51.076;3.706;2023-08-24T11:35:58;100973.91;;;29.02;54.48
32735;BME280;19112;51.076;3.706;2023-08-24T11:38:25;101028.94;;;29.22;54.64
32735;BME280;19112;51.076;3.706;2023-08-24T11:40:51;100946.16;;;28.75;54.72
32735;BME280;19112;51.076;3.706;2023-08-24T11:43:28;100842.50;;;28.10;54.49
32735;BME280;19112;51.076;3.706;2023-08-24T11:45:55;101159.44;;;29.95;54.63
32735;BME280;19112;51.076;3.706;2023-08-24T11:48:25;100910.22;;;28.73;54.40
32735;BME280;19112;51.076;3.706;2023-08-24T11:50:55;100963.66;;;29.10;54.37
32735;BME280;19112;51.076;3.706;2023-08-24T11:53:22;100910.16;;;28.74;54.10
32735;BME280;19112;51.076;3.706;2023-08-24T11:55:52;100899.41;;;28.73;54.29
32735;BME280;19112;51.076;3.706;2023-08-24T11:58:18;100987.84;;;29.35;54.13
32735;BME280;19112;51.076;3.706;2023-08-24T12:00:45;101127.72;;;30.19;54.17
32735;BME280;19112;51.076;3.706;2023-08-24T12:03:12;100941.16;;;29.09;53.52
32735;BME280;19112;51.076;3.706;2023-08-24T12:05:38;100878.94;;;28.67;53.62
32735;BME280;19112;51.076;3.706;2023-08-24T12:08:05;100913.81;;;28.95;52.98
32735;BME280;19112;51.076;3.706;2023-08-24T12:10:32;100864.03;;;28.57;53.01
32735;BME280;19112;51.076;3.706;2023-08-24T12:13:08;100971.81;;;29.30;52.87
32735;BME280;19112;51.076;3.706;2023-08-24T12:15:36;100938.72;;;29.03;52.87
32735;BME280;19112;51.076;3.706;2023-08-24T12:18:53;100749.66;;;27.90;52.78
32735;BME280;19112;51.076;3.706;2023-08-24T12:24:24;100789.94;;;27.97;52.87
32735;BME280;19112;51.076;3.706;2023-08-24T12:34:22;100814.53;;;28.56;52.14
32735;BME280;19112;51.076;3.706;2023-08-24T12:40:30;100818.88;;;28.81;51.37
32735;BME280;19112;51.076;3.706;2023-08-24T12:42:55;100922.91;;;29.35;51.17
32735;BME280;19112;51.076;3.706;2023-08-24T12:45:21;100854.22;;;28.98;51.08
32735;BME280;19112;51.076;3.706;2023-08-24T12:47:47;100902.41;;;29.29;50.98
32735;BME280;19112;51.076;3.706;2023-08-24T12:50:13;100946.94;;;29.42;50.38
32735;BME280;19112;51.076;3.706;2023-08-24T12:52:39;100899.88;;;29.26;50.96
32735;BME280;19112;51.076;3.706;2023-08-24T12:55:05;100980.97;;;29.48;50.98
32735;BME280;19112;51.076;3.706;2023-08-24T12:57:31;100872.81;;;28.84;51.19
32735;BME280;19112;51.076;3.706;2023-08-24T12:59:59;100876.91;;;28.50;51.06
32735;BME280;19112;51.076;3.706;2023-08-24T13:06:07;100795.50;;;28.37;51.79
32735;BME280;19112;51.076;3.706;2023-08-24T13:08:34;100902.47;;;29.07;51.65
32735;BME280;19112;51.076;3.706;2023-08-24T13:11:00;100917.50;;;29.35;51.45
32735;BME280;19112;51.076;3.706;2023-08-24T13:13:26;100955.03;;;29.64;51.10
32735;BME280;19112;51.076;3.706;2023-08-24T13:15:52;100928.53;;;29.50;51.10
32735;BME280;19112;51.076;3.706;2023-08-24T13:18:18;100915.34;;;29.43;50.55
32735;BME280;19112;51.076;3.706;2023-08-24T13:20:44;100990.97;;;29.88;50.78
32735;BME280;19112;51.076;3.706;2023-08-24T13:23:10;101054.06;;;30.31;50.52
32735;BME280;19112;51.076;3.706;2023-08-24T13:25:35;100850.41;;;29.22;50.08
32735;BME280;19112;51.076;3.706;2023-08-24T13:28:01;100980.44;;;30.01;50.21
32735;BME280;19112;51.076;3.706;2023-08-24T13:30:27;100872.81;;;29.46;50.50
32735;BME280;19112;51.076;3.706;2023-08-24T13:32:54;100986.94;;;30.17;50.54
32735;BME280;19112;51.076;3.706;2023-08-24T13:35:20;100937.91;;;30.03;50.26
32735;BME280;19112;51.076;3.706;2023-08-24T13:37:47;100985.81;;;30.42;49.60
32735;BME280;19112;51.076;3.706;2023-08-24T13:40:12;100935.34;;;30.20;49.73
32735;BME280;19112;51.076;3.706;2023-08-24T13:42:38;100879.16;;;30.05;49.54
32735;BME280;19112;51.076;3.706;2023-08-24T13:45:05;100982.16;;;30.81;48.69
32735;BME280;19112;51.076;3.706;2023-08-24T13:47:31;101039.16;;;31.17;48.88
32735;BME280;19112;51.076;3.706;2023-08-24T13:49:57;101019.63;;;31.09;49.45
32735;BME280;19112;51.076;3.706;2023-08-24T13:52:23;100969.56;;;30.80;48.37
32735;BME280;19112;51.076;3.706;2023-08-24T13:54:49;100953.13;;;30.64;48.11
32735;BME280;19112;51.076;3.706;2023-08-24T13:57:15;100950.84;;;30.55;48.18
32735;BME280;19112;51.076;3.706;2023-08-24T13:59:41;101005.44;;;31.03;47.91
32735;BME280;19112;51.076;3.706;2023-08-24T14:02:07;100980.97;;;30.86;47.91
32735;BME280;19112;51.076;3.706;2023-08-24T14:04:33;100969.25;;;30.86;48.09
32735;BME280;19112;51.076;3.706;2023-08-24T14:06:59;100951.81;;;30.72;47.72
32735;BME280;19112;51.076;3.706;2023-08-24T14:09:25;100992.41;;;30.93;48.34
32735;BME280;19112;51.076;3.706;2023-08-24T14:11:51;100832.66;;;29.77;48.38
32735;BME280;19112;51.076;3.706;2023-08-24T14:14:17;100909.28;;;29.97;48.94
32735;BME280;19112;51.076;3.706;2023-08-24T14:16:43;100949.16;;;30.14;49.44
32735;BME280;19112;51.076;3.706;2023-08-24T14:26:04;100922.50;;;29.23;50.86
32735;BME280;19112;51.076;3.706;2023-08-24T14:29:09;100627.59;;;27.62;51.13
32735;BME280;19112;51.076;3.706;2023-08-24T14:31:40;100661.47;;;27.71;51.68
32735;BME280;19112;51.076;3.706;2023-08-24T14:37:50;100891.34;;;28.93;51.56
32735;BME280;19112;51.076;3.706;2023-08-24T14:40:23;100891.16;;;28.97;51.11
32735;BME280;19112;51.076;3.706;2023-08-24T14:42:49;100630.97;;;27.45;51.32
32735;BME280;19112;51.076;3.706;2023-08-24T14:45:16;100889.72;;;29.11;50.99
32735;BME280;19112;51.076;3.706;2023-08-24T14:47:44;100832.25;;;29.06;50.77
32735;BME280;19112;51.076;3.706;2023-08-24T14:50:10;100927.34;;;29.58;50.43
32735;BME280;19112;51.076;3.706;2023-08-24T14:52:36;100982.88;;;30.07;50.26
32735;BME280;19112;51.076;3.706;2023-08-24T14:55:02;100877.78;;;29.57;50.52
32735;BME280;19112;51.076;3.706;2023-08-24T14:57:28;100910.91;;;30.01;50.23
32735;BME280;19112;51.076;3.706;2023-08-24T14:59:54;100881.31;;;29.97;50.44
32735;BME280;19112;51.076;3.706;2023-08-24T15:02:19;100897.25;;;30.23;50.50
32735;BME280;19112;51.076;3.706;2023-08-24T15:04:45;100929.63;;;30.45;50.16
32735;BME280;19112;51.076;3.706;2023-08-24T15:07:11;100927.78;;;30.65;50.02
32735;BME280;19112;51.076;3.706;2023-08-24T15:09:37;100898.31;;;30.57;49.71
32735;BME280;19112;51.076;3.706;2023-08-24T15:12:04;100968.19;;;31.24;49.45
32735;BME280;19112;51.076;3.706;2023-08-24T15:14:31;100963.38;;;31.31;49.30
32735;BME280;19112;51.076;3.706;2023-08-24T15:17:00;100892.81;;;30.77;48.43
32735;BME280;19112;51.076;3.706;2023-08-24T15:19:26;100922.84;;;30.92;48.12
32735;BME280;19112;51.076;3.706;2023-08-24T15:21:51;100955.31;;;31.29;48.29
32735;BME280;19112;51.076;3.706;2023-08-24T15:24:17;100816.88;;;30.60;48.14
32735;BME280;19112;51.076;3.706;2023-08-24T15:26:43;100816.91;;;30.41;47.73
32735;BME280;19112;51.076;3.706;2023-08-24T15:29:15;100880.66;;;30.67;48.47
32735;BME280;19112;51.076;3.706;2023-08-24T15:31:43;100923.09;;;31.04;48.02
32735;BME280;19112;51.076;3.706;2023-08-24T15:34:10;100862.44;;;30.88;47.85
32735;BME280;19112;51.076;3.706;2023-08-24T15:36:36;100938.00;;;31.49;47.16
32735;BME280;19112;51.076;3.706;2023-08-24T15:39:03;100894.59;;;31.32;46.58
32735;BME280;19112;51.076;3.706;2023-08-24T15:41:30;100829.66;;;30.93;46.69
32735;BME280;19112;51.076;3.706;2023-08-24T15:43:56;100904.94;;;31.41;46.90
32735;BME280;19112;51.076;3.706;2023-08-24T15:46:22;100868.88;;;31.39;46.54
32735;BME280;19112;51.076;3.706;2023-08-24T15:48:47;100902.19;;;31.59;45.80
32735;BME280;19112;51.076;3.706;2023-08-24T15:51:13;100894.31;;;31.54;45.70
32735;BME280;19112;51.076;3.706;2023-08-24T15:53:39;100840.81;;;31.21;46.46
32735;BME280;19112;51.076;3.706;2023-08-24T15:56:05;100832.38;;;31.10;46.49
32735;BME280;19112;51.076;3.706;2023-08-24T15:58:32;100839.41;;;31.32;46.16
32735;BME280;19112;51.076;3.706;2023-08-24T16:00:58;100877.19;;;31.69;46.53
32735;BME280;19112;51.076;3.706;2023-08-24T16:03:24;100841.34;;;31.63;45.46
32735;BME280;19112;51.076;3.706;2023-08-24T16:05:50;100905.78;;;32.10;45.41
32735;BME280;19112;51.076;3.706;2023-08-24T16:08:16;100856.81;;;32.43;45.06
32735;BME280;19112;51.076;3.706;2023-08-24T16:10:42;100942.75;;;33.08;44.13
32735;BME280;19112;51.076;3.706;2023-08-24T16:13:09;100796.22;;;32.56;43.66
32735;BME280;19112;51.076;3.706;2023-08-24T16:15:36;100869.94;;;33.12;43.27
32735;BME280;19112;51.076;3.706;2023-08-24T16:18:02;100868.16;;;33.27;43.17
32735;BME280;19112;51.076;3.706;2023-08-24T16:20:28;100840.22;;;33.23;42.88
32735;BME280;19112;51.076;3.706;2023-08-24T16:22:53;100823.78;;;33.10;42.34
32735;BME280;19112;51.076;3.706;2023-08-24T16:25:19;100855.53;;;32.80;42.96
32735;BME280;19112;51.076;3.706;2023-08-24T16:27:45;100852.84;;;32.64;42.73
32735;BME280;19112;51.076;3.706;2023-08-24T16:30:11;100836.38;;;32.20;44.21
32735;BME280;19112;51.076;3.706;2023-08-24T16:32:37;100881.78;;;32.18;44.85
32735;BME280;19112;51.076;3.706;2023-08-24T16:35:03;100864.41;;;31.71;45.41
32735;BME280;19112;51.076;3.706;2023-08-24T16:37:29;100785.47;;;31.08;45.50
32735;BME280;19112;51.076;3.706;2023-08-24T16:39:55;100793.00;;;30.86;45.82
32735;BME280;19112;51.076;3.706;2023-08-24T16:42:21;100832.22;;;30.78;46.46
32735;BME280;19112;51.076;3.706;2023-08-24T16:44:47;100721.13;;;30.06;47.04
32735;BME280;19112;51.076;3.706;2023-08-24T16:47:14;100797.97;;;30.59;47.49
32735;BME280;19112;51.076;3.706;2023-08-24T16:49:39;100753.66;;;30.60;47.39
32735;BME280;19112;51.076;3.706;2023-08-24T16:52:05;100772.91;;;30.90;46.98
32735;BME280;19112;51.076;3.706;2023-08-24T16:54:32;100827.97;;;31.25;46.67
32735;BME280;19112;51.076;3.706;2023-08-24T16:56:58;100834.44;;;31.05;47.15
32735;BME280;19112;51.076;3.706;2023-08-24T16:59:24;100855.59;;;30.98;47.65
32735;BME280;19112;51.076;3.706;2023-08-24T17:01:51;100856.38;;;30.83;47.71
32735;BME280;19112;51.076;3.706;2023-08-24T17:04:17;100785.72;;;30.15;48.33
32735;BME280;19112;51.076;3.706;2023-08-24T17:06:42;100826.47;;;30.12;49.04
32735;BME280;19112;51.076;3.706;2023-08-24T17:09:08;100784.13;;;29.72;49.23
32735;BME280;19112;51.076;3.706;2023-08-24T17:11:34;100914.47;;;30.22;49.93
32735;BME280;19112;51.076;3.706;2023-08-24T17:14:00;100834.03;;;29.66;50.59
32735;BME280;19112;51.076;3.706;2023-08-24T17:16:26;100830.19;;;29.52;50.51
32735;BME280;19112;51.076;3.706;2023-08-24T17:18:52;100870.78;;;29.52;50.98
32735;BME280;19112;51.076;3.706;2023-08-24T17:21:18;100784.47;;;28.84;51.19
32735;BME280;19112;51.076;3.706;2023-08-24T17:23:43;100810.75;;;28.81;52.15
32735;BME280;19112;51.076;3.706;2023-08-24T17:26:55;100949.97;;;29.57;52.09
32735;BME280;19112;51.076;3.706;2023-08-24T21:10:44;100871.78;;;23.65;94.29
32735;BME280;19112;51.076;3.706;2023-08-24T21:13:50;100293.16;;;20.24;93.97
32735;BME280;19112;51.076;3.706;2023-08-24T21:20:55;100541.94;;;21.57;94.62
32735;BME280;19112;51.076;3.706;2023-08-24T22:49:28;100577.00;;;21.37;90.40
32735;BME280;19112;51.076;3.706;2023-08-24T22:52:46;100506.91;;;21.18;91.12
32735;BME280;19112;51.076;3.706;2023-08-24T22:55:15;100862.88;;;23.18;90.93
32735;BME280;19112;51.076;3.706;2023-08-24T22:58:28;100853.75;;;23.26;92.62
32735;BME280;19112;51.076;3.706;2023-08-24T23:01:27;100347.44;;;20.19;91.83
32735;BME280;19112;51.076;3.706;2023-08-24T23:04:17;100367.50;;;20.46;91.87
32735;BME280;19112;51.076;3.706;2023-08-24T23:07:23;100268.75;;;19.92;91.21
32735;BME280;19112;51.076;3.706;2023-08-24T23:10:15;100357.81;;;20.40;90.70
32735;BME280;19112;51.076;3.706;2023-08-24T23:13:31;100845.75;;;23.25;90.96
32735;BME280;19112;51.076;3.706;2023-08-24T23:17:40;100529.06;;;21.27;90.23
32735;BME280;19112;51.076;3.706;2023-08-24T23:25:28;100839.78;;;23.09;90.34
32735;BME280;19112;51.076;3.706;2023-08-24T23:28:29;100480.84;;;20.77;90.10
32735;BME280;19112;51.076;3.706;2023-08-24T23:31:59;100311.47;;;19.85;89.93
32735;BME280;19112;51.076;3.706;2023-08-24T23:34:45;100784.28;;;22.68;89.95
32735;BME280;19112;51.076;3.706;2023-08-24T23:37:58;100348.47;;;20.10;90.05
32735;BME280;19112;51.076;3.706;2023-08-24T23:41:17;100857.97;;;22.90;90.66
32735;BME280;19112;51.076;3.706;2023-08-24T23:44:38;100824.13;;;22.85;91.15
32735;BME280;19112;51.076;3.706;2023-08-24T23:48:44;100829.47;;;22.85;90.72
32735;BME280;19112;51.076;3.706;2023-08-24T23:51:11;100353.16;;;19.89;89.38
32735;BME280;19112;51.076;3.706;2023-08-24T23:54:28;100777.50;;;22.48;90.35
32735;BME280;19112;51.076;3.706;2023-08-24T23:57:25;100463.25;;;20.67;90.23
